createdAt,value
2019-04-29T00:00:20.685Z,83.54
2019-04-29T00:01:20.776Z,82.91
2019-04-29T00:02:20.801Z,82.16
2019-04-29T00:03:20.789Z,82.73
2019-04-29T00:04:20.831Z,82.16
2019-04-29T00:05:20.779Z,82.32
2019-04-29T00:06:20.821Z,82.09
2019-04-29T00:07:20.825Z,82.10
2019-04-29T00:08:20.990Z,82.03
2019-04-29T00:09:20.851Z,82.14
2019-04-29T00:10:20.969Z,82.97
2019-04-29T00:11:20.852Z,82.96
2019-04-29T00:12:20.882Z,83.34
2019-04-29T00:13:20.862Z,83.48
2019-04-29T00:14:20.914Z,82.78
2019-04-29T00:15:20.854Z,84.21
2019-04-29T00:16:20.928Z,83.35
2019-04-29T00:17:20.955Z,83.07
2019-04-29T00:18:20.938Z,83.29
2019-04-29T00:19:21.008Z,83.01
2019-04-29T00:20:20.958Z,82.74
2019-04-29T00:21:21.168Z,83.26
2019-04-29T00:22:20.916Z,83.36
2019-04-29T00:23:20.986Z,83.57
2019-04-29T00:24:20.924Z,83.59
2019-04-29T00:25:21.189Z,83.61
2019-04-29T00:26:21.208Z,83.59
2019-04-29T00:27:21.089Z,82.76
2019-04-29T00:28:21.062Z,83.09
2019-04-29T00:29:21.078Z,83.39
2019-04-29T00:30:21.062Z,83.74
2019-04-29T00:31:21.096Z,82.96
2019-04-29T00:32:21.253Z,83.54
2019-04-29T00:33:21.095Z,83.10
2019-04-29T00:34:21.199Z,83.15
2019-04-29T00:35:21.247Z,83.40
2019-04-29T00:36:21.308Z,83.86
2019-04-29T00:37:21.336Z,83.63
2019-04-29T00:38:21.175Z,84.10
2019-04-29T00:39:21.171Z,83.96
2019-04-29T00:40:21.194Z,83.50
2019-04-29T00:41:21.208Z,83.80
2019-04-29T00:42:21.142Z,84.33
2019-04-29T00:43:21.398Z,83.77
2019-04-29T00:44:21.222Z,84.48
2019-04-29T00:45:21.304Z,84.71
2019-04-29T00:46:21.374Z,84.62
2019-04-29T00:47:21.425Z,83.45
2019-04-29T00:48:21.337Z,84.57
2019-04-29T00:49:21.511Z,84.43
2019-04-29T00:50:21.425Z,83.88
2019-04-29T00:51:21.332Z,84.38
2019-04-29T00:52:21.459Z,84.87
2019-04-29T00:53:21.401Z,84.15
2019-04-29T00:54:21.503Z,84.55
2019-04-29T00:55:21.388Z,83.63
2019-04-29T00:56:21.403Z,84.16
2019-04-29T00:57:21.420Z,84.35
2019-04-29T00:58:21.476Z,84.68
2019-04-29T00:59:21.408Z,84.35
2019-04-29T01:00:21.511Z,83.49
2019-04-29T01:01:21.437Z,84.46
2019-04-29T01:02:21.382Z,84.15
2019-04-29T01:03:21.816Z,83.57
2019-04-29T01:04:21.412Z,83.61
2019-04-29T01:05:21.555Z,84.54
2019-04-29T01:06:21.560Z,84.16
2019-04-29T01:07:21.465Z,83.74
2019-04-29T01:08:21.534Z,83.80
2019-04-29T01:09:21.749Z,83.91
2019-04-29T01:10:21.588Z,84.11
2019-04-29T01:11:22.628Z,83.75
2019-04-29T01:12:21.645Z,83.14
2019-04-29T01:13:21.637Z,83.07
2019-04-29T01:14:21.556Z,83.16
2019-04-29T01:15:21.646Z,83.88
2019-04-29T01:16:21.864Z,82.88
2019-04-29T01:17:21.593Z,82.74
2019-04-29T01:18:21.719Z,82.92
2019-04-29T01:19:21.794Z,83.16
2019-04-29T01:20:21.661Z,82.62
2019-04-29T01:21:21.719Z,83.13
2019-04-29T01:22:21.734Z,83.20
2019-04-29T01:23:21.745Z,83.28
2019-04-29T01:24:21.696Z,82.81
2019-04-29T01:25:21.762Z,83.43
2019-04-29T01:26:21.749Z,83.15
2019-04-29T01:27:21.973Z,82.64
2019-04-29T01:28:21.776Z,83.58
2019-04-29T01:29:21.877Z,83.08
2019-04-29T01:30:21.790Z,82.81
2019-04-29T01:31:21.842Z,83.62
2019-04-29T01:32:21.999Z,84.07
2019-04-29T01:33:21.827Z,83.82
2019-04-29T01:34:21.747Z,83.94
2019-04-29T01:35:21.919Z,83.61
2019-04-29T01:36:21.988Z,82.84
2019-04-29T01:37:22.067Z,82.98
2019-04-29T01:38:22.094Z,83.33
2019-04-29T01:39:21.968Z,83.27
2019-04-29T01:40:22.005Z,82.98
2019-04-29T01:41:22.156Z,83.53
2019-04-29T01:42:21.959Z,84.32
2019-04-29T01:43:21.984Z,83.60
2019-04-29T01:44:22.022Z,83.15
2019-04-29T01:45:22.014Z,83.59
2019-04-29T01:46:22.078Z,83.70
2019-04-29T01:47:22.069Z,83.80
2019-04-29T01:48:22.047Z,84.40
2019-04-29T01:49:22.215Z,83.79
2019-04-29T01:50:22.116Z,83.24
2019-04-29T01:51:22.055Z,83.54
2019-04-29T01:52:22.035Z,84.11
2019-04-29T01:53:22.073Z,83.91
2019-04-29T01:54:22.087Z,83.66
2019-04-29T01:55:22.038Z,83.15
2019-04-29T01:56:22.106Z,83.03
2019-04-29T01:57:22.096Z,82.99
2019-04-29T01:58:22.252Z,83.43
2019-04-29T01:59:22.194Z,82.84
2019-04-29T02:00:22.236Z,82.85
2019-04-29T02:01:22.151Z,83.18
2019-04-29T02:02:22.137Z,83.54
2019-04-29T02:03:22.140Z,82.93
2019-04-29T02:04:22.249Z,83.72
2019-04-29T02:05:22.126Z,83.39
2019-04-29T02:06:22.248Z,83.64
2019-04-29T02:07:22.169Z,82.57
2019-04-29T02:08:22.206Z,83.16
2019-04-29T02:09:22.023Z,82.98
2019-04-29T02:10:22.190Z,83.95
2019-04-29T02:11:22.394Z,83.13
2019-04-29T02:12:22.125Z,83.89
2019-04-29T02:13:22.145Z,83.22
2019-04-29T02:14:22.114Z,83.91
2019-04-29T02:15:22.128Z,83.63
2019-04-29T02:16:22.194Z,84.37
2019-04-29T02:17:22.141Z,83.31
2019-04-29T02:18:22.264Z,84.63
2019-04-29T02:19:22.245Z,83.69
2019-04-29T02:20:22.185Z,84.32
2019-04-29T02:21:22.155Z,84.82
2019-04-29T02:22:22.238Z,83.83
2019-04-29T02:23:22.175Z,83.42
2019-04-29T02:24:22.097Z,83.47
2019-04-29T02:25:22.513Z,83.92
2019-04-29T02:26:22.068Z,84.36
2019-04-29T02:27:22.123Z,84.17
2019-04-29T02:28:22.126Z,84.28
2019-04-29T02:29:22.177Z,83.86
2019-04-29T02:30:22.204Z,83.57
2019-04-29T02:31:22.180Z,84.37
2019-04-29T02:32:22.163Z,84.78
2019-04-29T02:33:22.439Z,84.16
2019-04-29T02:34:22.161Z,85.09
2019-04-29T02:35:22.187Z,84.84
2019-04-29T02:36:22.292Z,84.45
2019-04-29T02:37:22.297Z,84.41
2019-04-29T02:38:22.196Z,84.10
2019-04-29T02:39:22.196Z,84.86
2019-04-29T02:40:22.166Z,84.21
2019-04-29T02:41:22.084Z,84.81
2019-04-29T02:42:22.067Z,85.05
2019-04-29T02:43:22.118Z,84.64
2019-04-29T02:44:22.407Z,84.58
2019-04-29T02:45:22.229Z,84.44
2019-04-29T02:46:22.208Z,84.11
2019-04-29T02:47:22.124Z,84.53
2019-04-29T02:48:22.147Z,84.46
2019-04-29T02:49:22.339Z,85.32
2019-04-29T02:50:22.283Z,85.22
2019-04-29T02:51:22.139Z,84.88
2019-04-29T02:52:22.200Z,85.30
2019-04-29T02:53:22.190Z,84.64
2019-04-29T02:54:22.285Z,83.83
2019-04-29T02:55:22.297Z,84.35
2019-04-29T02:56:22.166Z,83.80
2019-04-29T02:57:22.083Z,84.64
2019-04-29T02:58:22.169Z,84.71
2019-04-29T02:59:22.177Z,84.12
2019-04-29T03:00:22.271Z,84.72
2019-04-29T03:01:22.138Z,83.83
2019-04-29T03:02:22.148Z,84.27
2019-04-29T03:03:22.276Z,83.63
2019-04-29T03:04:22.345Z,83.24
2019-04-29T03:05:22.147Z,84.31
2019-04-29T03:06:22.379Z,83.97
2019-04-29T03:07:22.401Z,84.09
2019-04-29T03:08:22.150Z,84.09
2019-04-29T03:09:22.332Z,84.37
2019-04-29T03:10:22.200Z,84.04
2019-04-29T03:11:22.287Z,83.84
2019-04-29T03:12:22.272Z,82.90
2019-04-29T03:13:22.103Z,84.01
2019-04-29T03:14:22.165Z,84.29
2019-04-29T03:15:22.129Z,84.43
2019-04-29T03:16:22.256Z,84.43
2019-04-29T03:17:22.263Z,84.38
2019-04-29T03:18:22.204Z,83.99
2019-04-29T03:19:22.181Z,83.96
2019-04-29T03:20:22.310Z,84.24
2019-04-29T03:21:22.275Z,84.28
2019-04-29T03:22:22.344Z,84.19
2019-04-29T03:23:22.264Z,84.42
2019-04-29T03:24:22.246Z,84.11
2019-04-29T03:25:22.282Z,83.61
2019-04-29T03:26:22.323Z,83.68
2019-04-29T03:27:22.381Z,84.04
2019-04-29T03:28:22.457Z,84.29
2019-04-29T03:29:22.317Z,83.93
2019-04-29T03:30:22.326Z,84.04
2019-04-29T03:31:22.267Z,83.35
2019-04-29T03:32:22.172Z,84.61
2019-04-29T03:33:22.139Z,84.41
2019-04-29T03:34:22.207Z,83.71
2019-04-29T03:35:22.323Z,83.33
2019-04-29T03:36:22.309Z,83.45
2019-04-29T03:37:22.236Z,83.49
2019-04-29T03:38:22.209Z,84.06
2019-04-29T03:39:22.436Z,83.28
2019-04-29T03:40:22.300Z,83.25
2019-04-29T03:41:23.377Z,82.66
2019-04-29T03:42:22.236Z,83.64
2019-04-29T03:43:22.304Z,83.17
2019-04-29T03:44:22.242Z,83.86
2019-04-29T03:45:22.321Z,83.62
2019-04-29T03:46:22.413Z,84.13
2019-04-29T03:47:22.363Z,83.10
2019-04-29T03:48:22.316Z,83.51
2019-04-29T03:49:22.429Z,83.80
2019-04-29T03:50:22.691Z,83.49
2019-04-29T03:51:22.312Z,83.51
2019-04-29T03:52:22.487Z,82.70
2019-04-29T03:53:22.349Z,82.82
2019-04-29T03:54:22.480Z,82.80
2019-04-29T03:55:38.151Z,83.45
2019-04-29T03:56:22.390Z,83.33
2019-04-29T03:57:22.397Z,82.83
2019-04-29T03:58:22.387Z,82.93
2019-04-29T03:59:22.412Z,84.16
2019-04-29T04:00:22.426Z,83.32
2019-04-29T04:01:22.510Z,83.79
2019-04-29T04:02:22.517Z,82.96
2019-04-29T04:03:22.533Z,83.20
2019-04-29T04:04:23.918Z,83.81
2019-04-29T04:05:22.871Z,83.48
2019-04-29T04:06:22.327Z,83.73
2019-04-29T04:07:22.881Z,83.84
2019-04-29T04:08:22.449Z,83.63
2019-04-29T04:09:22.471Z,83.06
2019-04-29T04:10:22.468Z,82.68
2019-04-29T04:11:22.319Z,82.69
2019-04-29T04:12:22.658Z,82.80
2019-04-29T04:13:22.352Z,82.40
2019-04-29T04:14:22.385Z,82.39
2019-04-29T04:15:23.054Z,82.12
2019-04-29T04:16:22.418Z,82.59
2019-04-29T04:17:22.365Z,81.97
2019-04-29T04:18:22.420Z,82.36
2019-04-29T04:19:22.374Z,83.33
2019-04-29T04:20:22.454Z,82.62
2019-04-29T04:21:22.461Z,83.27
2019-04-29T04:22:22.416Z,83.24
2019-04-29T04:23:22.561Z,83.23
2019-04-29T04:24:22.484Z,83.07
2019-04-29T04:25:22.439Z,82.72
2019-04-29T04:26:22.590Z,82.99
2019-04-29T04:27:22.640Z,82.25
2019-04-29T04:28:22.671Z,82.50
2019-04-29T04:29:22.505Z,83.23
2019-04-29T04:30:22.462Z,83.86
2019-04-29T04:31:22.374Z,83.84
2019-04-29T04:32:22.429Z,83.67
2019-04-29T04:33:22.496Z,83.46
2019-04-29T04:34:22.579Z,84.43
2019-04-29T04:35:22.433Z,83.65
2019-04-29T04:36:22.459Z,83.37
2019-04-29T04:37:22.431Z,83.62
2019-04-29T04:38:22.449Z,83.07
2019-04-29T04:39:22.573Z,83.70
2019-04-29T04:40:22.621Z,82.91
2019-04-29T04:41:22.529Z,83.46
2019-04-29T04:42:22.444Z,83.35
2019-04-29T04:43:22.493Z,82.87
2019-04-29T04:44:22.465Z,83.31
2019-04-29T04:45:22.790Z,83.44
2019-04-29T04:46:22.430Z,82.72
2019-04-29T04:47:22.626Z,82.62
2019-04-29T04:48:22.423Z,83.21
2019-04-29T04:49:22.549Z,83.56
2019-04-29T04:50:22.453Z,83.39
2019-04-29T04:51:22.466Z,83.55
2019-04-29T04:52:22.468Z,83.56
2019-04-29T04:53:22.785Z,82.63
2019-04-29T04:54:22.498Z,83.09
2019-04-29T04:55:22.488Z,82.71
2019-04-29T04:56:22.625Z,82.87
2019-04-29T04:57:22.472Z,82.89
2019-04-29T04:58:22.714Z,82.26
2019-04-29T04:59:22.546Z,83.16
2019-04-29T05:00:22.523Z,83.00
2019-04-29T05:01:22.475Z,82.99
2019-04-29T05:02:22.481Z,82.96
2019-04-29T05:03:22.422Z,83.39
2019-04-29T05:04:22.604Z,83.40
2019-04-29T05:05:22.436Z,83.11
2019-04-29T05:06:22.495Z,83.41
2019-04-29T05:07:22.617Z,83.06
2019-04-29T05:08:22.480Z,83.82
2019-04-29T05:09:22.608Z,83.68
2019-04-29T05:10:22.649Z,83.45
2019-04-29T05:11:22.596Z,83.84
2019-04-29T05:12:22.472Z,83.08
2019-04-29T05:13:28.469Z,82.59
2019-04-29T05:14:23.515Z,82.69
2019-04-29T05:15:22.430Z,82.84
2019-04-29T05:16:22.433Z,82.81
2019-04-29T05:17:22.423Z,82.52
2019-04-29T05:18:22.830Z,82.12
2019-04-29T05:19:22.475Z,81.31
2019-04-29T05:20:22.615Z,82.05
2019-04-29T05:21:22.546Z,81.86
2019-04-29T05:22:22.576Z,81.47
2019-04-29T05:23:22.485Z,81.86
2019-04-29T05:24:22.616Z,82.18
2019-04-29T05:25:22.554Z,82.51
2019-04-29T05:26:22.729Z,82.28
2019-04-29T05:27:22.494Z,82.27
2019-04-29T05:28:22.488Z,81.90
2019-04-29T05:29:22.749Z,81.84
2019-04-29T05:30:22.501Z,81.89
2019-04-29T05:31:22.486Z,81.34
2019-04-29T05:32:22.568Z,81.07
2019-04-29T05:33:22.522Z,81.00
2019-04-29T05:34:22.443Z,82.11
2019-04-29T05:35:24.800Z,81.84
2019-04-29T05:36:22.516Z,81.96
2019-04-29T05:37:22.486Z,81.64
2019-04-29T05:38:22.496Z,82.20
2019-04-29T05:39:22.504Z,81.97
2019-04-29T05:40:22.636Z,81.52
2019-04-29T05:41:22.735Z,81.06
2019-04-29T05:42:22.687Z,80.49
2019-04-29T05:43:22.688Z,80.32
2019-04-29T05:44:22.516Z,80.96
2019-04-29T05:45:22.617Z,80.51
2019-04-29T05:46:23.234Z,81.16
2019-04-29T05:47:22.571Z,81.38
2019-04-29T05:48:22.608Z,81.20
2019-04-29T05:49:22.752Z,81.34
2019-04-29T05:50:22.725Z,81.12
2019-04-29T05:51:26.967Z,81.28
2019-04-29T05:52:22.592Z,79.88
2019-04-29T05:53:22.547Z,79.41
2019-04-29T05:54:26.901Z,79.57
2019-04-29T05:55:22.491Z,80.58
2019-04-29T05:56:22.556Z,80.06
2019-04-29T05:57:25.444Z,79.59
2019-04-29T05:58:22.539Z,79.66
2019-04-29T05:59:22.647Z,79.46
2019-04-29T06:00:23.312Z,78.93
2019-04-29T06:01:22.660Z,79.50
2019-04-29T06:02:24.007Z,79.18
2019-04-29T06:03:22.742Z,78.49
2019-04-29T06:04:22.685Z,79.08
2019-04-29T06:05:22.615Z,79.97
2019-04-29T06:06:22.611Z,79.74
2019-04-29T06:07:23.518Z,79.47
2019-04-29T06:08:22.724Z,79.36
2019-04-29T06:09:22.478Z,78.98
2019-04-29T06:10:24.357Z,78.50
2019-04-29T06:11:23.362Z,78.84
2019-04-29T06:12:22.703Z,77.99
2019-04-29T06:13:22.816Z,78.81
2019-04-29T06:14:22.677Z,79.54
2019-04-29T06:15:22.578Z,79.39
2019-04-29T06:16:22.779Z,79.92
2019-04-29T06:17:22.584Z,79.19
2019-04-29T06:18:23.772Z,79.59
2019-04-29T06:19:22.622Z,78.46
2019-04-29T06:20:23.111Z,78.66
2019-04-29T06:21:22.606Z,79.04
2019-04-29T06:22:22.751Z,79.09
2019-04-29T06:23:23.201Z,80.13
2019-04-29T06:24:22.799Z,79.34
2019-04-29T06:25:23.171Z,78.84
2019-04-29T06:26:22.533Z,77.59
2019-04-29T06:27:22.696Z,78.55
2019-04-29T06:28:26.549Z,78.49
2019-04-29T06:29:22.744Z,78.30
2019-04-29T06:30:22.615Z,78.64
2019-04-29T06:31:22.847Z,78.17
2019-04-29T06:32:24.977Z,78.52
2019-04-29T06:33:24.292Z,78.48
2019-04-29T06:34:22.618Z,78.34
2019-04-29T06:35:23.109Z,78.22
2019-04-29T06:36:22.652Z,78.26
2019-04-29T06:37:22.697Z,78.34
2019-04-29T06:38:22.671Z,77.77
2019-04-29T06:39:22.639Z,77.72
2019-04-29T06:40:22.657Z,78.24
2019-04-29T06:41:22.659Z,76.92
2019-04-29T06:42:22.694Z,76.85
2019-04-29T06:43:24.665Z,77.72
2019-04-29T06:44:22.578Z,76.65
2019-04-29T06:45:22.563Z,77.09
2019-04-29T06:46:22.781Z,75.45
2019-04-29T06:47:22.652Z,75.15
2019-04-29T06:48:22.656Z,75.20
2019-04-29T06:49:22.743Z,75.82
2019-04-29T06:50:22.663Z,76.46
2019-04-29T06:51:22.803Z,76.58
2019-04-29T06:52:22.661Z,75.31
2019-04-29T06:53:23.266Z,75.72
2019-04-29T06:54:22.715Z,75.17
2019-04-29T06:55:22.647Z,74.03
2019-04-29T06:56:22.725Z,75.62
2019-04-29T06:57:22.838Z,75.32
2019-04-29T06:58:22.596Z,75.96
2019-04-29T06:59:22.624Z,76.48
2019-04-29T07:00:23.929Z,76.26
2019-04-29T07:01:22.621Z,75.68
2019-04-29T07:02:22.633Z,75.44
2019-04-29T07:03:25.444Z,75.18
2019-04-29T07:04:22.899Z,74.31
2019-04-29T07:05:22.667Z,74.71
2019-04-29T07:06:22.679Z,74.43
2019-04-29T07:07:22.649Z,73.50
2019-04-29T07:08:22.826Z,73.99
2019-04-29T07:09:22.641Z,74.76
2019-04-29T07:10:26.715Z,74.50
2019-04-29T07:11:22.880Z,74.60
2019-04-29T07:12:22.703Z,74.61
2019-04-29T07:13:24.254Z,74.22
2019-04-29T07:14:22.824Z,73.90
2019-04-29T07:15:22.649Z,74.71
2019-04-29T07:16:27.348Z,74.68
2019-04-29T07:17:22.647Z,75.07
2019-04-29T07:18:22.686Z,75.34
2019-04-29T07:19:26.690Z,75.44
2019-04-29T07:20:22.786Z,73.64
2019-04-29T07:21:22.820Z,74.15
2019-04-29T07:22:25.825Z,75.01
2019-04-29T07:23:22.803Z,75.28
2019-04-29T07:24:22.648Z,74.99
2019-04-29T07:25:24.573Z,74.44
2019-04-29T07:26:22.770Z,73.48
2019-04-29T07:27:22.599Z,74.15
2019-04-29T07:28:22.599Z,73.53
2019-04-29T07:29:29.749Z,73.00
2019-04-29T07:30:22.719Z,73.22
2019-04-29T07:31:22.786Z,73.39
2019-04-29T07:32:22.659Z,72.55
2019-04-29T07:33:24.410Z,73.05
2019-04-29T07:34:22.751Z,72.61
2019-04-29T07:35:22.680Z,72.43
2019-04-29T07:36:23.870Z,72.46
2019-04-29T07:37:22.888Z,72.83
2019-04-29T07:38:22.706Z,73.01
2019-04-29T07:39:26.622Z,73.45
2019-04-29T07:40:22.732Z,72.93
2019-04-29T07:41:22.779Z,73.39
2019-04-29T07:42:25.012Z,72.61
2019-04-29T07:43:22.613Z,72.92
2019-04-29T07:44:22.599Z,72.96
2019-04-29T07:45:23.714Z,70.96
2019-04-29T07:46:22.757Z,71.29
2019-04-29T07:47:25.002Z,70.68
2019-04-29T07:48:22.677Z,71.09
2019-04-29T07:49:22.656Z,70.97
2019-04-29T07:50:26.905Z,71.19
2019-04-29T07:51:22.780Z,73.25
2019-04-29T07:52:22.841Z,73.88
2019-04-29T07:53:34.313Z,72.47
2019-04-29T07:54:22.817Z,72.33
2019-04-29T07:55:25.881Z,72.65
2019-04-29T07:56:22.743Z,72.41
2019-04-29T07:57:22.765Z,72.29
2019-04-29T07:58:23.083Z,72.37
2019-04-29T07:59:22.622Z,71.26
2019-04-29T08:00:22.688Z,71.94
2019-04-29T08:01:24.454Z,72.53
2019-04-29T08:02:22.652Z,73.02
2019-04-29T08:03:22.787Z,71.50
2019-04-29T08:04:22.712Z,71.33
2019-04-29T08:05:22.838Z,72.02
2019-04-29T08:06:22.773Z,71.96
2019-04-29T08:07:22.685Z,70.98
2019-04-29T08:08:22.832Z,70.92
2019-04-29T08:09:23.728Z,71.40
2019-04-29T08:10:23.744Z,70.56
2019-04-29T08:11:22.756Z,70.50
2019-04-29T08:12:22.930Z,69.66
2019-04-29T08:13:22.635Z,69.21
2019-04-29T08:14:22.867Z,69.56
2019-04-29T08:15:22.699Z,69.80
2019-04-29T08:16:22.794Z,70.36
2019-04-29T08:17:22.820Z,68.59
2019-04-29T08:18:22.634Z,68.45
2019-04-29T08:19:24.775Z,69.68
2019-04-29T08:20:23.058Z,69.84
2019-04-29T08:21:22.798Z,68.96
2019-04-29T08:22:27.395Z,68.43
2019-04-29T08:23:22.728Z,68.89
2019-04-29T08:24:22.693Z,70.34
2019-04-29T08:25:26.061Z,70.29
2019-04-29T08:26:22.736Z,71.23
2019-04-29T08:27:22.726Z,71.39
2019-04-29T08:28:22.645Z,70.67
2019-04-29T08:29:22.688Z,71.75
2019-04-29T08:30:22.687Z,70.67
2019-04-29T08:31:22.889Z,69.67
2019-04-29T08:32:22.703Z,68.16
2019-04-29T08:33:22.717Z,68.22
2019-04-29T08:34:23.384Z,67.95
2019-04-29T08:35:22.832Z,65.97
2019-04-29T08:36:22.919Z,67.40
2019-04-29T08:37:24.938Z,66.71
2019-04-29T08:38:22.750Z,66.30
2019-04-29T08:39:25.128Z,66.70
2019-04-29T08:40:22.733Z,65.57
2019-04-29T08:41:28.536Z,65.18
2019-04-29T08:42:22.792Z,65.79
2019-04-29T08:43:22.663Z,64.91
2019-04-29T08:44:22.703Z,65.65
2019-04-29T08:45:22.843Z,66.19
2019-04-29T08:46:22.695Z,67.81
2019-04-29T08:47:26.910Z,67.80
2019-04-29T08:48:22.876Z,67.90
2019-04-29T08:49:22.814Z,68.45
2019-04-29T08:50:22.712Z,68.28
2019-04-29T08:51:22.752Z,67.19
2019-04-29T08:52:22.831Z,67.86
2019-04-29T08:53:22.777Z,67.61
2019-04-29T08:54:22.761Z,67.95
2019-04-29T08:55:26.673Z,68.07
2019-04-29T08:56:22.885Z,68.16
2019-04-29T08:57:22.814Z,68.67
2019-04-29T08:58:22.906Z,68.56
2019-04-29T08:59:24.593Z,66.84
2019-04-29T09:00:22.770Z,67.83
2019-04-29T09:01:24.582Z,68.03
2019-04-29T09:02:34.669Z,67.94
2019-04-29T09:03:23.430Z,67.71
2019-04-29T09:04:22.753Z,66.69
2019-04-29T09:05:22.888Z,65.87
2019-04-29T09:06:22.768Z,65.27
2019-04-29T09:07:23.241Z,64.73
2019-04-29T09:08:22.809Z,63.50
2019-04-29T09:09:29.085Z,64.24
2019-04-29T09:10:22.811Z,63.36
2019-04-29T09:11:22.778Z,64.54
2019-04-29T09:12:24.259Z,64.20
2019-04-29T09:13:23.153Z,65.57
2019-04-29T09:14:22.825Z,66.90
2019-04-29T09:15:22.694Z,65.57
2019-04-29T09:16:22.716Z,64.97
2019-04-29T09:17:22.752Z,64.97
2019-04-29T09:18:22.690Z,66.74
2019-04-29T09:19:22.704Z,66.40
2019-04-29T09:20:22.870Z,67.01
2019-04-29T09:21:22.737Z,66.58
2019-04-29T09:22:22.855Z,65.73
2019-04-29T09:23:22.762Z,65.15
2019-04-29T09:24:22.829Z,64.96
2019-04-29T09:25:26.170Z,63.50
2019-04-29T09:26:24.350Z,62.08
2019-04-29T09:27:22.879Z,61.03
2019-04-29T09:28:28.113Z,59.74
2019-04-29T09:29:22.781Z,59.75
2019-04-29T09:30:22.739Z,59.97
2019-04-29T09:31:22.978Z,60.75
2019-04-29T09:32:22.764Z,61.82
2019-04-29T09:33:22.802Z,63.95
2019-04-29T09:34:24.696Z,64.29
2019-04-29T09:35:22.812Z,64.71
2019-04-29T09:36:22.779Z,65.26
2019-04-29T09:37:24.479Z,65.71
2019-04-29T09:38:22.823Z,65.98
2019-04-29T09:39:22.794Z,64.95
2019-04-29T09:40:22.837Z,65.56
2019-04-29T09:41:22.936Z,66.06
2019-04-29T09:42:22.966Z,65.83
2019-04-29T09:43:26.002Z,64.77
2019-04-29T09:44:22.816Z,63.86
2019-04-29T09:45:24.474Z,63.61
2019-04-29T09:46:22.917Z,62.38
2019-04-29T09:47:22.778Z,63.08
2019-04-29T09:48:22.918Z,63.17
2019-04-29T09:49:22.919Z,63.49
2019-04-29T09:50:22.751Z,62.83
2019-04-29T09:51:27.498Z,62.27
2019-04-29T09:52:22.819Z,62.19
2019-04-29T09:53:23.095Z,61.44
2019-04-29T09:54:22.903Z,60.01
2019-04-29T09:55:22.812Z,60.97
2019-04-29T09:56:22.810Z,60.04
2019-04-29T09:57:22.839Z,59.70
2019-04-29T09:58:22.953Z,60.44
2019-04-29T09:59:22.907Z,59.73
2019-04-29T10:00:22.730Z,60.19
2019-04-29T10:01:23.686Z,61.53
2019-04-29T10:02:26.160Z,61.82
2019-04-29T10:03:22.922Z,62.45
2019-04-29T10:04:23.053Z,62.62
2019-04-29T10:05:22.819Z,63.43
2019-04-29T10:06:22.805Z,62.58
2019-04-29T10:07:22.822Z,61.56
2019-04-29T10:08:23.038Z,61.34
2019-04-29T10:09:22.826Z,61.12
2019-04-29T10:10:22.988Z,61.27
2019-04-29T10:11:22.878Z,62.28
2019-04-29T10:12:22.841Z,62.43
2019-04-29T10:13:22.823Z,62.51
2019-04-29T10:14:22.839Z,61.23
2019-04-29T10:15:23.038Z,61.36
2019-04-29T10:16:22.931Z,61.17
2019-04-29T10:17:22.822Z,59.98
2019-04-29T10:18:25.039Z,60.48
2019-04-29T10:19:22.795Z,59.78
2019-04-29T10:20:22.941Z,59.25
2019-04-29T10:21:23.358Z,59.30
2019-04-29T10:22:22.852Z,57.70
2019-04-29T10:23:22.862Z,57.88
2019-04-29T10:24:22.903Z,58.75
2019-04-29T10:25:22.929Z,58.50
2019-04-29T10:26:23.029Z,58.95
2019-04-29T10:27:23.214Z,60.78
2019-04-29T10:28:22.865Z,59.44
2019-04-29T10:29:25.669Z,60.80
2019-04-29T10:30:22.870Z,60.05
2019-04-29T10:31:22.969Z,59.11
2019-04-29T10:32:22.931Z,58.83
2019-04-29T10:33:23.148Z,57.71
2019-04-29T10:34:26.864Z,56.64
2019-04-29T10:35:22.813Z,56.33
2019-04-29T10:36:25.928Z,55.40
2019-04-29T10:37:23.699Z,57.07
2019-04-29T10:38:22.829Z,56.19
2019-04-29T10:39:24.263Z,54.82
2019-04-29T10:40:22.839Z,55.04
2019-04-29T10:41:22.932Z,55.20
2019-04-29T10:42:23.146Z,55.65
2019-04-29T10:43:22.902Z,57.19
2019-04-29T10:44:22.884Z,56.73
2019-04-29T10:45:22.964Z,56.65
2019-04-29T10:46:23.079Z,55.67
2019-04-29T10:47:23.456Z,55.95
2019-04-29T10:48:22.913Z,55.63
2019-04-29T10:49:22.818Z,54.06
2019-04-29T10:50:23.855Z,54.67
2019-04-29T10:51:23.301Z,54.51
2019-04-29T10:52:22.870Z,54.75
2019-04-29T10:53:22.826Z,53.90
2019-04-29T10:54:22.819Z,54.51
2019-04-29T10:55:25.648Z,54.84
2019-04-29T10:56:22.926Z,54.02
2019-04-29T10:57:22.861Z,53.88
2019-04-29T10:58:30.150Z,52.92
2019-04-29T10:59:35.369Z,52.30
2019-04-29T11:00:23.440Z,51.27
2019-04-29T11:01:22.937Z,52.20
2019-04-29T11:02:22.941Z,52.43
2019-04-29T11:03:25.097Z,53.99
2019-04-29T11:04:23.071Z,54.86
2019-04-29T11:05:22.770Z,53.42
2019-04-29T11:06:22.946Z,53.53
2019-04-29T11:07:26.456Z,53.71
2019-04-29T11:08:22.877Z,52.73
2019-04-29T11:09:22.833Z,52.74
2019-04-29T11:10:25.125Z,52.62
2019-04-29T11:11:26.780Z,51.93
2019-04-29T11:12:22.878Z,53.43
2019-04-29T11:13:22.887Z,53.01
2019-04-29T11:14:24.880Z,53.71
2019-04-29T11:15:22.807Z,54.00
2019-04-29T11:16:29.501Z,53.59
2019-04-29T11:17:23.220Z,54.02
2019-04-29T11:18:23.573Z,53.75
2019-04-29T11:19:22.879Z,53.75
2019-04-29T11:20:22.954Z,53.23
2019-04-29T11:21:25.051Z,52.87
2019-04-29T11:22:22.939Z,52.65
2019-04-29T11:23:23.568Z,52.65
2019-04-29T11:24:22.787Z,52.59
2019-04-29T11:25:22.931Z,51.98
2019-04-29T11:26:23.492Z,50.79
2019-04-29T11:27:22.923Z,49.44
2019-04-29T11:28:22.913Z,49.41
2019-04-29T11:29:27.211Z,49.71
2019-04-29T11:30:22.955Z,49.14
2019-04-29T11:31:22.936Z,50.14
2019-04-29T11:32:24.854Z,49.96
2019-04-29T11:33:22.939Z,49.85
2019-04-29T11:34:23.055Z,50.73
2019-04-29T11:35:24.491Z,51.68
2019-04-29T11:36:23.006Z,51.28
2019-04-29T11:37:24.051Z,50.47
2019-04-29T11:38:22.942Z,49.82
2019-04-29T11:39:23.086Z,49.96
2019-04-29T11:40:26.065Z,49.75
2019-04-29T11:41:23.023Z,49.44
2019-04-29T11:42:22.966Z,50.14
2019-04-29T11:43:23.063Z,50.47
2019-04-29T11:44:26.550Z,50.50
2019-04-29T11:45:23.028Z,50.59
2019-04-29T11:46:22.960Z,50.40
2019-04-29T11:47:25.235Z,50.86
2019-04-29T11:48:23.110Z,50.35
2019-04-29T11:49:23.094Z,51.59
2019-04-29T11:50:22.991Z,50.57
2019-04-29T11:51:22.946Z,49.42
2019-04-29T11:52:23.677Z,48.34
2019-04-29T11:53:22.953Z,48.60
2019-04-29T11:54:23.076Z,48.42
2019-04-29T11:55:22.903Z,48.45
2019-04-29T11:56:23.109Z,48.38
2019-04-29T11:57:23.045Z,46.44
2019-04-29T11:58:23.010Z,46.58
2019-04-29T11:59:23.023Z,47.06
2019-04-29T12:00:22.914Z,47.16
2019-04-29T12:01:37.984Z,47.05
2019-04-29T12:02:43.731Z,47.30
2019-04-29T12:03:23.125Z,48.58
2019-04-29T12:04:22.998Z,49.82
2019-04-29T12:05:23.120Z,50.05
2019-04-29T12:06:23.369Z,50.62
2019-04-29T12:07:27.114Z,50.75
2019-04-29T12:08:22.993Z,50.43
2019-04-29T12:09:25.558Z,49.75
2019-04-29T12:10:22.930Z,49.33
2019-04-29T12:11:23.031Z,50.02
2019-04-29T12:12:22.980Z,49.44
2019-04-29T12:13:27.143Z,50.19
2019-04-29T12:14:23.081Z,49.14
2019-04-29T12:15:23.188Z,49.91
2019-04-29T12:16:24.511Z,48.59
2019-04-29T12:17:23.159Z,49.13
2019-04-29T12:18:23.218Z,49.12
2019-04-29T12:19:22.999Z,49.29
2019-04-29T12:20:23.095Z,49.78
2019-04-29T12:21:25.537Z,51.10
2019-04-29T12:22:30.256Z,50.88
2019-04-29T12:23:22.956Z,50.31
2019-04-29T12:24:22.884Z,50.98
2019-04-29T12:25:27.152Z,53.48
2019-04-29T12:26:22.974Z,54.25
2019-04-29T12:27:23.180Z,53.99
2019-04-29T12:28:23.385Z,54.68
2019-04-29T12:29:23.008Z,55.14
2019-04-29T12:30:23.103Z,54.67
2019-04-29T12:31:23.139Z,54.48
2019-04-29T12:32:24.972Z,54.74
2019-04-29T12:33:23.030Z,54.73
2019-04-29T12:34:26.603Z,54.50
2019-04-29T12:35:23.429Z,54.00
2019-04-29T12:36:23.001Z,54.30
2019-04-29T12:37:25.596Z,54.86
2019-04-29T12:38:23.302Z,54.60
2019-04-29T12:39:42.354Z,55.16
2019-04-29T12:40:23.077Z,54.94
2019-04-29T12:41:29.596Z,55.15
2019-04-29T12:42:23.007Z,54.92
2019-04-29T12:43:23.227Z,54.81
2019-04-29T12:44:34.720Z,55.18
2019-04-29T12:45:23.057Z,54.68
2019-04-29T12:46:22.986Z,54.68
2019-04-29T12:47:26.722Z,54.93
2019-04-29T12:48:24.871Z,55.40
2019-04-29T12:49:23.157Z,54.28
2019-04-29T12:50:23.221Z,53.81
2019-04-29T12:51:23.009Z,53.86
2019-04-29T12:52:23.247Z,54.39